createdAt,value
2019-03-13T00:01:41.866Z,9.67
2019-03-13T00:04:14.820Z,12.00
2019-03-13T00:06:47.691Z,9.93
2019-03-13T00:09:20.807Z,13.60
2019-03-13T00:11:53.782Z,11.40
2019-03-13T00:14:26.939Z,10.73
2019-03-13T00:16:59.733Z,7.70
2019-03-13T00:19:32.725Z,7.20
2019-03-13T00:22:09.708Z,8.97
2019-03-13T00:24:42.658Z,4.77
2019-03-13T00:27:15.560Z,6.23
2019-03-13T00:29:48.441Z,3.97
2019-03-13T00:32:22.394Z,7.07
2019-03-13T00:34:55.187Z,6.27
2019-03-13T00:37:28.275Z,9.37
2019-03-13T00:40:01.146Z,5.20
2019-03-13T00:42:34.041Z,5.53
2019-03-13T00:45:07.979Z,7.53
2019-03-13T00:47:40.943Z,8.97
2019-03-13T00:50:25.695Z,5.30
2019-03-13T00:52:58.574Z,6.10
2019-03-13T00:55:31.495Z,9.47
2019-03-13T00:58:04.570Z,4.77
2019-03-13T01:00:50.781Z,6.27
2019-03-13T01:03:41.661Z,9.07
2019-03-13T01:06:34.025Z,9.47
2019-03-13T01:09:09.296Z,10.90
2019-03-13T01:11:43.217Z,8.03
2019-03-13T01:14:15.994Z,6.63
2019-03-13T01:16:49.232Z,10.17
2019-03-13T01:19:22.040Z,8.83
2019-03-13T01:21:55.021Z,8.07
2019-03-13T01:24:28.268Z,6.63
2019-03-13T01:27:01.252Z,6.87
2019-03-13T01:29:34.087Z,7.50
2019-03-13T01:32:25.561Z,10.87
2019-03-13T01:35:17.078Z,9.47
2019-03-13T01:37:50.150Z,6.17
2019-03-13T01:40:23.337Z,14.53
2019-03-13T01:42:56.876Z,11.67
2019-03-13T01:45:29.807Z,13.03
2019-03-13T01:48:02.821Z,6.37
2019-03-13T01:50:35.881Z,8.73
2019-03-13T01:53:21.574Z,7.97
2019-03-13T01:55:54.422Z,5.87
2019-03-13T01:58:27.363Z,7.27
2019-03-13T02:01:06.832Z,11.63
2019-03-13T02:03:39.939Z,7.33
2019-03-13T02:06:13.107Z,11.83
2019-03-13T02:08:46.856Z,8.60
2019-03-13T02:11:19.801Z,9.37
2019-03-13T02:13:52.787Z,8.53
2019-03-13T02:16:25.582Z,13.93
2019-03-13T02:18:58.702Z,13.73
2019-03-13T02:21:31.694Z,16.67
2019-03-13T02:24:04.688Z,9.20
2019-03-13T02:26:37.632Z,11.03
2019-03-13T02:29:10.369Z,11.23
2019-03-13T02:31:43.194Z,12.17
2019-03-13T02:34:16.061Z,14.97
2019-03-13T02:36:48.892Z,11.17
2019-03-13T02:39:22.009Z,8.67
2019-03-13T02:41:54.963Z,9.57
2019-03-13T02:44:27.968Z,11.77
2019-03-13T02:47:01.023Z,15.37
2019-03-13T02:49:34.134Z,13.03
2019-03-13T02:52:07.012Z,15.67
2019-03-13T02:54:39.926Z,14.03
2019-03-13T02:57:12.843Z,10.63
2019-03-13T02:59:45.738Z,9.20
2019-03-13T03:02:39.685Z,13.23
2019-03-13T03:05:12.928Z,9.63
2019-03-13T03:07:45.767Z,11.10
2019-03-13T03:10:18.803Z,9.47
2019-03-13T03:12:51.676Z,8.73
2019-03-13T03:15:24.714Z,7.20
2019-03-13T03:17:57.593Z,15.87
2019-03-13T03:20:30.594Z,9.20
2019-03-13T03:23:03.483Z,19.47
2019-03-13T03:25:36.632Z,14.20
2019-03-13T03:28:09.476Z,14.87
2019-03-13T03:30:42.733Z,17.93
2019-03-13T03:33:15.737Z,11.00
2019-03-13T03:35:48.659Z,14.83
2019-03-13T03:38:21.519Z,12.47
2019-03-13T03:40:54.761Z,15.10
2019-03-13T03:43:39.385Z,7.90
2019-03-13T03:46:02.537Z,12.40
2019-03-13T03:48:35.356Z,9.33
2019-03-13T03:51:08.159Z,11.67
2019-03-13T03:54:00.429Z,12.00
2019-03-13T03:56:33.326Z,12.30
2019-03-13T03:59:06.384Z,16.47
2019-03-13T04:01:39.167Z,6.53
2019-03-13T04:04:11.990Z,11.50
2019-03-13T04:06:44.921Z,10.00
2019-03-13T04:09:17.883Z,10.33
2019-03-13T04:11:51.092Z,12.40
2019-03-13T04:14:24.383Z,10.30
2019-03-13T04:16:57.545Z,17.07
2019-03-13T04:19:30.359Z,19.83
2019-03-13T04:22:03.338Z,15.07
2019-03-13T04:24:36.058Z,7.07
2019-03-13T04:27:09.100Z,14.53
2019-03-13T04:29:42.909Z,13.80
2019-03-13T04:32:23.032Z,17.93
2019-03-13T04:34:55.837Z,12.67
2019-03-13T04:37:28.671Z,17.27
2019-03-13T04:40:01.528Z,21.50
2019-03-13T04:42:34.470Z,15.47
2019-03-13T04:45:07.498Z,14.00
2019-03-13T04:47:40.275Z,19.17
2019-03-13T04:50:13.183Z,14.33
2019-03-13T04:52:46.222Z,17.60
2019-03-13T04:55:19.102Z,19.33
2019-03-13T04:57:52.014Z,15.77
2019-03-13T05:00:24.858Z,22.47
2019-03-13T05:02:57.712Z,14.43
2019-03-13T05:05:51.475Z,11.10
2019-03-13T05:08:44.963Z,10.23
2019-03-13T05:11:14.703Z,14.03
2019-03-13T05:13:47.610Z,12.57
2019-03-13T05:16:20.599Z,21.93
2019-03-13T05:18:53.615Z,17.47
2019-03-13T05:21:26.424Z,18.10
2019-03-13T05:23:59.327Z,13.13
2019-03-13T05:26:32.174Z,17.07
2019-03-13T05:29:05.104Z,18.30
2019-03-13T05:31:37.915Z,19.13
2019-03-13T05:34:10.705Z,11.67
2019-03-13T05:36:43.643Z,8.93
2019-03-13T05:39:16.654Z,19.90
2019-03-13T05:41:49.592Z,21.03
2019-03-13T05:44:22.623Z,15.23
2019-03-13T05:46:55.542Z,12.60
2019-03-13T05:49:28.585Z,16.67
2019-03-13T05:52:01.534Z,19.70
2019-03-13T05:54:34.481Z,8.03
2019-03-13T05:57:07.509Z,14.53
2019-03-13T05:59:41.310Z,23.07
2019-03-13T06:02:14.394Z,16.70
2019-03-13T06:04:47.489Z,15.63
2019-03-13T06:07:20.302Z,19.77
2019-03-13T06:09:53.239Z,18.40
2019-03-13T06:12:26.236Z,16.77
2019-03-13T06:14:59.459Z,25.93
2019-03-13T06:17:32.350Z,16.03
2019-03-13T06:20:06.081Z,18.60
2019-03-13T06:22:39.175Z,17.30
2019-03-13T06:25:12.359Z,16.43
2019-03-13T06:27:46.598Z,20.30
2019-03-13T06:30:20.268Z,10.33
2019-03-13T06:32:53.342Z,15.23
2019-03-13T06:35:26.437Z,20.37
2019-03-13T06:37:59.664Z,24.57
2019-03-13T06:40:33.104Z,20.43
2019-03-13T06:43:06.091Z,17.67
2019-03-13T06:45:38.945Z,21.27
2019-03-13T06:48:11.817Z,12.67
2019-03-13T06:50:44.896Z,10.53
2019-03-13T06:53:17.990Z,15.37
2019-03-13T06:55:50.981Z,14.47
2019-03-13T06:58:43.615Z,22.20
2019-03-13T07:01:32.643Z,24.17
2019-03-13T07:04:32.991Z,16.63
2019-03-13T07:07:31.251Z,13.27
2019-03-13T07:10:31.850Z,14.57
2019-03-13T07:13:27.237Z,18.87
2019-03-13T07:16:18.268Z,18.37
2019-03-13T07:19:16.763Z,19.20
2019-03-13T07:22:15.230Z,13.70
2019-03-13T07:25:13.535Z,17.93
2019-03-13T07:28:12.071Z,15.00
2019-03-13T07:30:58.672Z,21.10
2019-03-13T07:33:51.141Z,17.20
2019-03-13T07:36:41.206Z,25.43
2019-03-13T07:39:33.537Z,17.83
2019-03-13T07:42:24.967Z,15.63
2019-03-13T07:45:16.652Z,17.83
2019-03-13T07:48:12.322Z,19.10
2019-03-13T07:51:13.715Z,17.87
2019-03-13T07:54:12.283Z,13.97
2019-03-13T07:56:52.919Z,14.00
2019-03-13T07:59:57.627Z,17.97
2019-03-13T08:02:52.767Z,15.77
2019-03-13T08:05:38.162Z,16.15
2019-03-13T08:08:36.387Z,10.17
2019-03-13T08:11:44.051Z,16.20
2019-03-13T08:14:41.156Z,21.43
2019-03-13T08:17:21.933Z,17.40
2019-03-13T08:20:20.317Z,13.37
2019-03-13T08:23:15.544Z,10.87
2019-03-13T08:26:06.756Z,12.03
2019-03-13T08:29:08.176Z,13.43
2019-03-13T08:32:06.636Z,11.63
2019-03-13T08:35:05.151Z,15.57
2019-03-13T08:37:54.389Z,17.60
2019-03-13T08:40:45.243Z,16.47
2019-03-13T08:43:46.837Z,18.60
2019-03-13T08:46:39.285Z,10.53
2019-03-13T08:49:31.818Z,9.97
2019-03-13T08:52:36.379Z,13.50
2019-03-13T08:55:18.286Z,14.20
2019-03-13T08:57:57.953Z,12.57
2019-03-13T09:00:50.403Z,14.50
2019-03-13T09:03:27.529Z,16.83
2019-03-13T09:06:20.113Z,11.53
2019-03-13T09:09:21.344Z,15.70
2019-03-13T09:12:03.758Z,11.67
2019-03-13T09:14:43.899Z,10.43
2019-03-13T09:17:40.172Z,9.37
2019-03-13T09:20:35.709Z,8.10
2019-03-13T09:23:28.016Z,11.07
2019-03-13T09:26:26.321Z,15.07
2019-03-13T09:29:24.801Z,12.80
2019-03-13T09:32:17.126Z,12.77
2019-03-13T09:35:18.962Z,11.10
2019-03-13T09:38:29.509Z,10.17
2019-03-13T09:41:31.063Z,9.33
2019-03-13T09:44:41.604Z,11.33
2019-03-13T09:47:21.064Z,17.77
2019-03-13T09:50:13.519Z,21.90
2019-03-13T09:53:15.235Z,14.93
2019-03-13T09:56:16.624Z,13.63
2019-03-13T09:59:08.168Z,9.47
2019-03-13T10:02:12.588Z,10.20
2019-03-13T10:05:01.321Z,18.27
2019-03-13T10:08:05.834Z,8.33
2019-03-13T10:11:10.363Z,15.90
2019-03-13T10:13:58.749Z,14.33
2019-03-13T10:16:50.186Z,11.67
2019-03-13T10:19:45.794Z,11.03
2019-03-13T10:22:35.190Z,10.87
2019-03-13T10:25:13.249Z,9.77
2019-03-13T10:28:05.658Z,15.70
2019-03-13T10:30:44.313Z,14.80
2019-03-13T10:33:32.666Z,19.17
2019-03-13T10:36:27.892Z,17.40
2019-03-13T10:39:29.342Z,17.17
2019-03-13T10:42:27.814Z,11.63
2019-03-13T10:45:22.304Z,11.87
2019-03-13T10:48:17.473Z,9.87
2019-03-13T10:51:12.281Z,17.03
2019-03-13T10:54:07.675Z,5.50
2019-03-13T10:57:02.724Z,11.47
2019-03-13T10:59:44.050Z,19.73
2019-03-13T11:02:36.565Z,14.30
2019-03-13T11:05:34.848Z,14.83
2019-03-13T11:08:25.341Z,9.70
2019-03-13T11:11:23.661Z,12.37
2019-03-13T11:14:14.809Z,15.17
2019-03-13T11:17:01.943Z,10.63
2019-03-13T11:20:16.259Z,12.67
2019-03-13T11:23:00.671Z,11.17
2019-03-13T11:25:46.255Z,15.00
2019-03-13T11:28:50.955Z,5.97
2019-03-13T11:31:43.351Z,13.47
2019-03-13T11:34:23.480Z,16.70
2019-03-13T11:37:11.772Z,8.00
2019-03-13T11:40:01.936Z,8.10
2019-03-13T11:43:04.812Z,8.07
2019-03-13T11:45:56.136Z,10.17
2019-03-13T11:49:07.251Z,7.00
2019-03-13T11:52:00.624Z,4.77
2019-03-13T11:55:08.111Z,7.57
2019-03-13T11:58:16.650Z,5.53
2019-03-13T12:01:07.809Z,11.77
2019-03-13T12:03:59.372Z,4.87
2019-03-13T12:06:54.790Z,2.03
2019-03-13T12:09:56.826Z,5.80
2019-03-13T12:12:46.236Z,4.20
2019-03-13T12:15:41.145Z,5.13
2019-03-13T12:18:26.824Z,7.27
2019-03-13T12:21:31.727Z,6.70
2019-03-13T12:24:22.899Z,9.77
2019-03-13T12:27:08.490Z,3.93
2019-03-13T12:30:04.195Z,2.53
2019-03-13T12:33:04.181Z,3.53
2019-03-13T12:35:48.450Z,5.17
2019-03-13T12:38:36.687Z,4.97
2019-03-13T12:41:38.298Z,1.50
2019-03-13T12:44:39.946Z,6.20
2019-03-13T12:47:35.120Z,5.90
2019-03-13T12:50:25.997Z,4.03
2019-03-13T12:53:17.217Z,5.23
2019-03-13T12:56:12.486Z,3.10
2019-03-13T12:59:11.145Z,7.00
2019-03-13T13:02:03.410Z,4.00
2019-03-13T13:04:54.506Z,5.60
2019-03-13T13:07:46.913Z,5.27
2019-03-13T13:10:39.277Z,7.27
2019-03-13T13:13:34.565Z,5.20
2019-03-13T13:16:45.331Z,6.03
2019-03-13T13:19:18.540Z,9.47
2019-03-13T13:21:52.502Z,5.87
2019-03-13T13:24:25.480Z,7.47
2019-03-13T13:26:58.374Z,5.87
2019-03-13T13:29:31.116Z,4.00
2019-03-13T13:32:04.507Z,4.40
2019-03-13T13:34:37.480Z,5.80
2019-03-13T13:37:10.475Z,4.13
2019-03-13T13:39:43.327Z,7.53
2019-03-13T13:42:16.073Z,5.77
2019-03-13T13:44:48.997Z,5.93
2019-03-13T13:47:22.087Z,7.30
2019-03-13T13:49:59.869Z,3.20
2019-03-13T13:52:30.500Z,7.20
2019-03-13T13:55:03.759Z,6.10
2019-03-13T13:57:36.906Z,3.87
2019-03-13T14:00:09.933Z,3.60
2019-03-13T14:02:42.965Z,6.57
2019-03-13T14:05:16.197Z,5.17
2019-03-13T14:07:49.338Z,6.20
2019-03-13T14:10:22.663Z,5.77
2019-03-13T14:12:55.858Z,2.20
2019-03-13T14:15:28.962Z,10.83
2019-03-13T14:18:01.739Z,6.13
2019-03-13T14:20:34.892Z,8.43
2019-03-13T14:23:07.931Z,6.77
2019-03-13T14:25:40.837Z,7.33
2019-03-13T14:28:14.930Z,6.43
2019-03-13T14:30:49.055Z,6.47
2019-03-13T14:33:22.207Z,9.03
2019-03-13T14:35:57.188Z,6.60
2019-03-13T14:38:30.411Z,12.67
2019-03-13T14:41:03.628Z,7.90
2019-03-13T14:43:36.656Z,14.90
2019-03-13T14:46:09.682Z,11.80
2019-03-13T14:48:42.845Z,16.17
2019-03-13T14:51:16.007Z,9.27
2019-03-13T14:53:49.521Z,8.90
2019-03-13T14:56:22.466Z,13.63
2019-03-13T14:58:55.567Z,7.73
2019-03-13T15:01:28.622Z,11.17
2019-03-13T15:04:01.759Z,12.33
2019-03-13T15:06:35.019Z,20.70
2019-03-13T15:09:08.323Z,17.97
2019-03-13T15:11:41.781Z,18.87
2019-03-13T15:14:14.758Z,21.30
2019-03-13T15:16:47.847Z,11.63
2019-03-13T15:19:20.932Z,18.30
2019-03-13T15:21:54.019Z,14.17
2019-03-13T15:24:27.137Z,18.97
2019-03-13T15:27:00.134Z,20.03
2019-03-13T15:29:33.324Z,18.87
2019-03-13T15:32:06.302Z,21.40
2019-03-13T15:34:41.490Z,21.30
2019-03-13T15:37:13.983Z,24.23
2019-03-13T15:39:47.293Z,16.90
2019-03-13T15:42:20.247Z,25.53
2019-03-13T15:44:53.432Z,19.30
2019-03-13T15:47:26.469Z,23.80
2019-03-13T15:49:59.937Z,22.17
2019-03-13T15:52:32.978Z,22.40
2019-03-13T15:55:07.297Z,21.10
2019-03-13T15:57:40.298Z,33.27
2019-03-13T16:00:17.045Z,27.60
2019-03-13T16:02:50.248Z,30.33
2019-03-13T16:05:23.596Z,31.70
2019-03-13T16:07:56.646Z,30.80
2019-03-13T16:10:29.865Z,31.67
2019-03-13T16:13:04.542Z,24.43
2019-03-13T16:15:37.964Z,23.30
2019-03-13T16:18:11.938Z,17.60
2019-03-13T16:20:44.844Z,19.10
2019-03-13T16:23:18.843Z,22.87
2019-03-13T16:25:51.730Z,22.33
2019-03-13T16:28:24.740Z,21.10
2019-03-13T16:30:57.868Z,23.17
2019-03-13T16:33:30.725Z,25.00
2019-03-13T16:36:03.862Z,20.30
2019-03-13T16:38:36.919Z,4.77
2019-03-13T16:41:10.225Z,5.80
2019-03-13T16:43:43.238Z,2.97
2019-03-13T16:46:16.619Z,2.37
2019-03-13T16:48:49.564Z,3.83
2019-03-13T16:51:22.720Z,3.40
2019-03-13T16:53:55.795Z,5.73
2019-03-13T16:56:28.883Z,2.60
2019-03-13T16:59:02.046Z,4.27
2019-03-13T17:01:34.801Z,6.53
2019-03-13T17:04:08.035Z,4.67
2019-03-13T17:06:41.073Z,4.00
2019-03-13T17:09:14.303Z,7.40
2019-03-13T17:11:49.861Z,6.23
2019-03-13T17:14:25.176Z,3.77
2019-03-13T17:16:59.559Z,3.43
2019-03-13T17:19:32.521Z,5.40
2019-03-13T17:22:05.525Z,6.80
2019-03-13T17:24:38.774Z,8.33
2019-03-13T17:27:11.906Z,11.77
2019-03-13T17:29:45.055Z,6.97
2019-03-13T17:32:18.122Z,8.73
2019-03-13T17:34:51.166Z,16.40
2019-03-13T17:37:24.418Z,16.83
2019-03-13T17:39:57.882Z,13.27
2019-03-13T17:42:31.826Z,13.80
2019-03-13T17:45:07.298Z,13.77
2019-03-13T17:47:40.185Z,8.13
2019-03-13T17:50:14.632Z,11.23
2019-03-13T17:52:47.739Z,9.00
2019-03-13T17:55:21.155Z,7.43
2019-03-13T17:57:53.987Z,6.13
2019-03-13T18:00:30.275Z,13.63
2019-03-13T18:03:03.735Z,12.70
2019-03-13T18:05:36.879Z,14.93
2019-03-13T18:08:10.231Z,14.27
2019-03-13T18:10:43.194Z,17.83
2019-03-13T18:13:16.221Z,24.80
2019-03-13T18:15:49.750Z,25.50
2019-03-13T18:18:22.654Z,20.17
2019-03-13T18:20:55.836Z,24.87
2019-03-13T18:23:28.932Z,23.07
2019-03-13T18:26:01.706Z,33.07
2019-03-13T18:28:34.730Z,20.43
2019-03-13T18:31:07.735Z,24.40
2019-03-13T18:33:40.600Z,21.93
2019-03-13T18:36:14.403Z,21.10
2019-03-13T18:38:47.772Z,23.93
2019-03-13T18:41:23.120Z,25.50
2019-03-13T18:43:55.884Z,16.47
2019-03-13T18:46:28.615Z,21.57
2019-03-13T18:49:01.471Z,24.30
2019-03-13T18:51:34.601Z,24.07
2019-03-13T18:54:07.436Z,28.03
2019-03-13T18:56:40.350Z,27.33
2019-03-13T18:59:13.449Z,24.90
2019-03-13T19:01:46.801Z,27.47
2019-03-13T19:04:19.907Z,32.63
2019-03-13T19:06:52.991Z,34.50
2019-03-13T19:09:29.093Z,33.07
2019-03-13T19:12:01.577Z,35.77
2019-03-13T19:14:34.467Z,49.17
2019-03-13T19:17:07.534Z,38.13
2019-03-13T19:19:40.661Z,35.37
2019-03-13T19:22:13.702Z,32.53
2019-03-13T19:24:46.608Z,24.53
2019-03-13T19:27:19.730Z,31.47
2019-03-13T19:29:52.658Z,19.37
2019-03-13T19:32:25.562Z,26.13
2019-03-13T19:34:58.494Z,17.97
2019-03-13T19:37:31.457Z,24.80
2019-03-13T19:40:05.308Z,21.33
2019-03-13T19:42:38.181Z,21.30
2019-03-13T19:45:13.934Z,19.57
2019-03-13T19:47:47.158Z,22.10
2019-03-13T19:50:20.241Z,23.83
2019-03-13T19:52:53.439Z,18.97
2019-03-13T19:55:27.228Z,14.50
2019-03-13T19:58:00.428Z,11.13
2019-03-13T20:00:35.016Z,18.30
2019-03-13T20:03:08.478Z,10.80
2019-03-13T20:05:45.898Z,14.90
2019-03-13T20:08:16.359Z,16.43
2019-03-13T20:10:57.831Z,16.67
2019-03-13T20:13:30.401Z,11.40
2019-03-13T20:16:05.770Z,23.73
2019-03-13T20:18:43.760Z,18.83
2019-03-13T20:21:24.050Z,16.77
2019-03-13T20:24:00.599Z,20.87
2019-03-13T20:26:35.543Z,20.77
2019-03-13T20:29:08.565Z,20.27
2019-03-13T20:31:41.702Z,19.53
2019-03-13T20:34:14.843Z,29.77
2019-03-13T20:36:48.163Z,27.20
2019-03-13T20:39:21.108Z,30.17
2019-03-13T20:41:54.586Z,32.50
2019-03-13T20:44:28.013Z,26.30
2019-03-13T20:47:03.004Z,27.93
2019-03-13T20:49:35.886Z,37.20
2019-03-13T20:52:10.478Z,37.43
2019-03-13T20:54:45.843Z,21.03
2019-03-13T20:57:22.036Z,34.37
2019-03-13T21:00:00.759Z,29.70
2019-03-13T21:02:38.088Z,21.27
2019-03-13T21:05:24.021Z,31.00
2019-03-13T21:08:00.087Z,23.93
2019-03-13T21:10:35.825Z,22.13
2019-03-13T21:13:11.409Z,27.70
2019-03-13T21:15:47.461Z,25.97
2019-03-13T21:18:22.416Z,26.83
2019-03-13T21:20:55.504Z,21.83
2019-03-13T21:23:28.934Z,24.43
2019-03-13T21:26:02.038Z,20.37
2019-03-13T21:28:35.101Z,15.10
2019-03-13T21:31:08.539Z,18.60
2019-03-13T21:33:41.411Z,16.87
2019-03-13T21:36:14.582Z,16.73
2019-03-13T21:38:47.635Z,14.03
2019-03-13T21:41:20.495Z,18.67
2019-03-13T21:43:53.553Z,17.63
2019-03-13T21:46:26.814Z,20.97
2019-03-13T21:48:59.623Z,12.67
2019-03-13T21:51:32.605Z,18.90
2019-03-13T21:54:05.755Z,15.33
2019-03-13T21:56:38.770Z,14.70
2019-03-13T21:59:11.753Z,13.43
2019-03-13T22:01:44.993Z,25.07
2019-03-13T22:04:24.194Z,17.33
2019-03-13T22:06:52.941Z,13.43
2019-03-13T22:09:25.823Z,23.00
2019-03-13T22:11:58.978Z,18.57
2019-03-13T22:14:32.199Z,23.17
2019-03-13T22:17:05.249Z,17.90
2019-03-13T22:19:38.224Z,24.33
2019-03-13T22:22:11.085Z,18.33
2019-03-13T22:24:44.110Z,22.43
2019-03-13T22:27:16.935Z,20.47
2019-03-13T22:29:49.849Z,20.77
2019-03-13T22:32:23.019Z,16.30
2019-03-13T22:34:56.107Z,18.87
2019-03-13T22:37:29.135Z,19.67
2019-03-13T22:40:02.135Z,19.80
2019-03-13T22:42:35.195Z,18.37
2019-03-13T22:45:09.100Z,15.60
2019-03-13T22:47:43.282Z,15.10
2019-03-13T22:50:17.304Z,22.97
2019-03-13T22:53:11.453Z,18.50
2019-03-13T22:55:44.630Z,20.17
2019-03-13T22:58:17.493Z,12.07
2019-03-13T23:00:56.303Z,15.23
2019-03-13T23:03:31.383Z,11.90
2019-03-13T23:06:04.643Z,13.53
2019-03-13T23:08:37.424Z,18.17
2019-03-13T23:11:10.200Z,11.33
2019-03-13T23:13:42.999Z,12.77
2019-03-13T23:16:16.152Z,13.00
2019-03-13T23:18:49.060Z,13.50
2019-03-13T23:21:22.056Z,10.67
2019-03-13T23:23:54.934Z,6.87
2019-03-13T23:26:27.990Z,10.63
2019-03-13T23:29:00.883Z,8.70
2019-03-13T23:31:33.861Z,15.23
2019-03-13T23:34:06.776Z,8.87
2019-03-13T23:36:40.674Z,9.10
2019-03-13T23:39:13.513Z,8.00
2019-03-13T23:41:46.450Z,11.60
2019-03-13T23:44:19.351Z,16.90
2019-03-13T23:46:52.420Z,12.80
2019-03-13T23:49:25.493Z,12.47
2019-03-13T23:51:58.516Z,12.33
2019-03-13T23:54:31.408Z,13.93
2019-03-13T23:57:04.359Z,7.40
2019-03-13T23:59:37.339Z,11.63
